createdAt,value
2023-05-21T00:02:55.515Z,24.17
2023-05-21T00:07:48.826Z,24.05
2023-05-21T00:12:43.014Z,24.77
2023-05-21T00:17:37.476Z,24.92
2023-05-21T00:22:30.351Z,24.95
2023-05-21T00:27:24.224Z,25.77
2023-05-21T00:32:17.661Z,26.50
2023-05-21T00:37:11.063Z,24.48
2023-05-21T00:42:04.170Z,28.17
2023-05-21T00:47:00.460Z,27.13
2023-05-21T00:51:53.253Z,28.42
2023-05-21T00:56:47.151Z,27.83
2023-05-21T01:01:41.140Z,28.17
2023-05-21T01:06:35.584Z,27.55
2023-05-21T01:11:49.170Z,26.13
2023-05-21T01:16:43.724Z,26.95
2023-05-21T01:21:38.689Z,28.75
2023-05-21T01:26:34.309Z,29.77
2023-05-21T01:31:36.339Z,32.17
2023-05-21T01:36:36.170Z,29.50
2023-05-21T01:41:30.659Z,30.38
2023-05-21T01:46:26.377Z,28.58
2023-05-21T01:51:19.636Z,31.70
2023-05-21T01:56:13.094Z,30.27
2023-05-21T02:01:06.460Z,30.05
2023-05-21T02:05:59.358Z,29.63
2023-05-21T02:10:52.539Z,29.80
2023-05-21T02:15:45.688Z,31.65
2023-05-21T02:20:40.414Z,30.80
2023-05-21T02:25:33.396Z,32.22
2023-05-21T02:30:27.109Z,31.00
2023-05-21T02:35:20.172Z,33.03
2023-05-21T02:40:13.303Z,32.92
2023-05-21T02:45:12.937Z,32.97
2023-05-21T02:50:09.095Z,31.15
2023-05-21T02:55:10.307Z,28.55
2023-05-21T03:00:04.461Z,30.95
2023-05-21T03:04:59.289Z,28.98
2023-05-21T03:09:52.619Z,29.10
2023-05-21T03:14:47.030Z,31.42
2023-05-21T03:19:41.030Z,28.42
2023-05-21T03:24:34.608Z,25.50
2023-05-21T03:29:28.910Z,25.33
2023-05-21T03:34:22.829Z,25.05
2023-05-21T03:39:16.707Z,21.30
2023-05-21T03:44:10.473Z,22.10
2023-05-21T03:49:15.005Z,19.88
2023-05-21T03:54:09.083Z,20.30
2023-05-21T03:59:03.816Z,21.60
2023-05-21T04:03:57.946Z,20.25
2023-05-21T04:08:53.338Z,20.42
2023-05-21T04:13:48.848Z,20.92
2023-05-21T04:18:44.932Z,19.38
2023-05-21T04:23:41.747Z,22.75
2023-05-21T04:28:43.024Z,22.33
2023-05-21T04:33:36.703Z,22.55
2023-05-21T04:38:29.367Z,22.35
2023-05-21T04:43:26.469Z,22.20
2023-05-21T04:48:25.128Z,22.73
2023-05-21T04:53:18.459Z,22.38
2023-05-21T04:58:11.950Z,20.58
2023-05-21T05:03:05.537Z,19.10
2023-05-21T05:07:58.993Z,18.17
2023-05-21T05:12:52.992Z,19.08
2023-05-21T05:17:48.968Z,19.30
2023-05-21T05:22:42.392Z,17.58
2023-05-21T05:27:37.809Z,18.23
2023-05-21T05:32:36.686Z,19.02
2023-05-21T05:37:30.047Z,17.93
2023-05-21T05:42:23.310Z,20.35
2023-05-21T05:47:18.027Z,19.83
2023-05-21T05:52:12.665Z,19.90
2023-05-21T05:57:05.809Z,19.55
2023-05-21T06:02:01.630Z,19.08
2023-05-21T06:06:55.038Z,16.77
2023-05-21T06:11:48.408Z,18.42
2023-05-21T06:16:41.782Z,17.55
2023-05-21T06:21:35.032Z,17.40
2023-05-21T06:26:31.593Z,17.08
2023-05-21T06:31:26.152Z,17.20
2023-05-21T06:36:20.274Z,18.02
2023-05-21T06:41:14.582Z,17.90
2023-05-21T06:46:17.885Z,17.75
2023-05-21T06:51:11.272Z,19.02
2023-05-21T06:56:05.355Z,19.27
2023-05-21T07:01:05.154Z,17.98
2023-05-21T07:05:59.588Z,18.65
2023-05-21T07:10:54.977Z,18.40
2023-05-21T07:15:50.259Z,18.15
2023-05-21T07:20:43.482Z,16.58
2023-05-21T07:25:40.807Z,16.20
2023-05-21T07:30:34.684Z,15.73
2023-05-21T07:35:29.684Z,14.68
2023-05-21T07:40:22.821Z,12.77
2023-05-21T07:45:16.361Z,13.75
2023-05-21T07:50:12.861Z,13.55
2023-05-21T07:55:07.159Z,14.07
2023-05-21T08:00:02.668Z,12.63
2023-05-21T08:04:58.527Z,13.27
2023-05-21T08:09:52.208Z,12.70
2023-05-21T08:14:46.372Z,12.40
2023-05-21T08:19:42.583Z,12.68
2023-05-21T08:24:37.294Z,12.10
2023-05-21T08:29:30.992Z,12.30
2023-05-21T08:34:23.802Z,12.68
2023-05-21T08:39:27.845Z,12.48
2023-05-21T08:44:23.046Z,12.52
2023-05-21T08:49:18.070Z,11.05
2023-05-21T08:54:12.165Z,13.10
2023-05-21T08:59:04.617Z,11.57
2023-05-21T09:04:18.998Z,12.18
2023-05-21T09:09:28.313Z,12.30
2023-05-21T09:14:22.787Z,10.80
2023-05-21T09:19:32.817Z,11.30
2023-05-21T09:24:33.111Z,10.27
2023-05-21T09:34:22.505Z,9.68
2023-05-21T09:39:29.736Z,10.20
2023-05-21T09:44:27.003Z,11.40
2023-05-21T09:49:28.567Z,11.07
2023-05-21T09:54:24.003Z,9.50
2023-05-21T09:59:17.252Z,9.75
2023-05-21T10:04:11.068Z,9.95
2023-05-21T10:09:08.156Z,9.48
2023-05-21T10:14:23.055Z,9.80
2023-05-21T10:19:16.930Z,10.63
2023-05-21T10:24:10.712Z,10.35
2023-05-21T10:29:04.432Z,9.20
2023-05-21T10:33:58.711Z,8.93
2023-05-21T10:38:51.068Z,9.90
2023-05-21T10:43:52.753Z,10.23
2023-05-21T10:49:05.107Z,9.25
2023-05-21T10:54:30.024Z,10.85
2023-05-21T10:59:43.754Z,9.68
2023-05-21T11:04:40.632Z,8.55
2023-05-21T11:14:27.457Z,9.18
2023-05-21T11:19:20.882Z,8.85
2023-05-21T11:24:19.693Z,8.35
2023-05-21T11:29:14.640Z,9.30
2023-05-21T11:34:30.152Z,8.32
2023-05-21T11:39:26.556Z,8.98
2023-05-21T11:44:42.659Z,8.38
2023-05-21T11:49:36.323Z,8.90
2023-05-21T11:54:34.762Z,7.82
2023-05-21T11:59:28.839Z,8.00
2023-05-21T12:04:23.147Z,7.75
2023-05-21T12:09:17.753Z,7.95
2023-05-21T12:14:30.910Z,9.23
2023-05-21T12:19:24.172Z,8.27
2023-05-21T12:24:17.995Z,7.55
2023-05-21T12:29:11.661Z,7.22
2023-05-21T12:34:05.927Z,8.20
2023-05-21T12:38:59.077Z,7.35
2023-05-21T12:43:53.274Z,8.07
2023-05-21T12:49:04.874Z,7.70
2023-05-21T12:53:58.002Z,7.28
2023-05-21T12:58:51.767Z,8.02
2023-05-21T13:03:45.079Z,7.88
2023-05-21T13:08:38.969Z,6.95
2023-05-21T13:13:32.147Z,6.38
2023-05-21T13:18:25.395Z,7.07
2023-05-21T13:23:18.128Z,7.55
2023-05-21T13:28:15.069Z,6.22
2023-05-21T13:33:09.323Z,7.40
2023-05-21T13:38:03.231Z,6.47
2023-05-21T13:42:56.841Z,7.43
2023-05-21T13:47:50.667Z,7.05
2023-05-21T13:52:44.121Z,8.10
2023-05-21T13:57:38.134Z,9.65
2023-05-21T14:02:31.730Z,8.40
2023-05-21T14:07:25.560Z,8.30
2023-05-21T14:12:20.585Z,8.48
2023-05-21T14:17:14.653Z,9.00
2023-05-21T14:22:08.041Z,8.18
2023-05-21T14:27:02.657Z,8.48
2023-05-21T14:31:56.332Z,7.45
2023-05-21T14:36:49.798Z,8.10
2023-05-21T14:41:43.986Z,7.13
2023-05-21T14:46:37.938Z,7.90
2023-05-21T14:51:31.847Z,6.70
2023-05-21T14:56:28.112Z,6.82
2023-05-21T15:01:22.024Z,6.82
2023-05-21T15:06:15.248Z,6.30
2023-05-21T15:11:10.645Z,7.93
2023-05-21T15:16:05.035Z,7.43
2023-05-21T15:20:59.116Z,7.18
2023-05-21T15:25:52.204Z,7.03
2023-05-21T15:30:45.530Z,7.80
2023-05-21T15:35:39.609Z,6.70
2023-05-21T15:40:33.077Z,7.25
2023-05-21T15:45:26.089Z,6.90
2023-05-21T15:50:20.589Z,6.70
2023-05-21T15:55:15.061Z,7.32
2023-05-21T16:00:11.424Z,7.22
2023-05-21T16:05:06.583Z,7.03
2023-05-21T16:10:00.186Z,7.32
2023-05-21T16:14:53.741Z,6.75
2023-05-21T16:19:47.953Z,6.07
2023-05-21T16:24:42.297Z,7.47
2023-05-21T16:29:38.173Z,6.18
2023-05-21T16:34:34.679Z,6.97
2023-05-21T16:39:28.176Z,6.57
2023-05-21T16:44:21.547Z,6.82
2023-05-21T16:49:14.364Z,6.45
2023-05-21T16:54:07.687Z,6.82
2023-05-21T16:59:01.584Z,6.95
2023-05-21T17:03:56.360Z,6.75
2023-05-21T17:08:51.293Z,6.45
2023-05-21T17:13:48.517Z,6.13
2023-05-21T17:18:42.184Z,6.87
2023-05-21T17:23:36.524Z,6.60
2023-05-21T17:28:30.000Z,7.00
2023-05-21T17:33:24.769Z,7.20
2023-05-21T17:38:18.068Z,69.38
2023-05-21T17:43:11.903Z,12.82
2023-05-21T17:48:06.491Z,7.47
2023-05-21T17:53:00.621Z,7.25
2023-05-21T17:57:57.810Z,6.78
2023-05-21T18:02:51.572Z,6.38
2023-05-21T18:07:46.020Z,9.13
2023-05-21T18:12:41.455Z,10.20
2023-05-21T18:17:36.215Z,8.10
2023-05-21T18:22:29.446Z,9.50
2023-05-21T18:27:22.356Z,7.20
2023-05-21T18:32:17.670Z,6.97
2023-05-21T18:37:12.270Z,7.25
2023-05-21T18:42:13.381Z,7.63
2023-05-21T18:47:08.401Z,6.63
2023-05-21T18:52:01.092Z,7.72
2023-05-21T18:56:55.532Z,8.43
2023-05-21T19:01:50.041Z,8.88
2023-05-21T19:06:43.939Z,8.20
2023-05-21T19:11:37.898Z,8.05
2023-05-21T19:16:31.809Z,8.70
2023-05-21T19:21:27.338Z,8.05
2023-05-21T19:26:23.002Z,9.13
2023-05-21T19:31:16.694Z,8.98
2023-05-21T19:36:10.679Z,8.40
2023-05-21T19:41:04.493Z,8.68
2023-05-21T19:45:57.996Z,8.77
2023-05-21T19:50:52.296Z,8.63
2023-05-21T19:55:46.678Z,9.15
2023-05-21T20:00:40.728Z,10.57
2023-05-21T20:05:34.614Z,10.15
2023-05-21T20:10:28.481Z,9.65
2023-05-21T20:15:22.498Z,9.13
2023-05-21T20:20:17.283Z,9.82
2023-05-21T20:25:11.112Z,9.82
2023-05-21T20:30:05.119Z,10.15
2023-05-21T20:35:03.459Z,10.45
2023-05-21T20:39:58.405Z,9.30
2023-05-21T20:44:53.499Z,9.48
2023-05-21T20:49:47.407Z,10.27
2023-05-21T20:54:43.074Z,10.40
2023-05-21T20:59:37.116Z,10.18
2023-05-21T21:04:30.608Z,10.30
2023-05-21T21:09:23.371Z,9.45
2023-05-21T21:14:17.003Z,10.32
2023-05-21T21:19:11.229Z,10.68
2023-05-21T21:24:06.531Z,11.55
2023-05-21T21:29:00.204Z,10.98
2023-05-21T21:33:53.637Z,14.00
2023-05-21T21:38:48.914Z,11.35
2023-05-21T21:43:42.540Z,11.20
2023-05-21T21:48:36.180Z,11.48
2023-05-21T21:53:29.513Z,11.77
2023-05-21T21:58:23.290Z,10.68
2023-05-21T22:03:17.428Z,10.30
2023-05-21T22:08:11.965Z,10.52
2023-05-21T22:13:06.174Z,10.25
2023-05-21T22:18:08.005Z,10.80
2023-05-21T22:23:01.043Z,10.55
2023-05-21T22:27:54.434Z,9.98
2023-05-21T22:32:48.901Z,12.15
2023-05-21T22:37:42.356Z,11.57
2023-05-21T22:42:35.650Z,10.65
2023-05-21T22:47:29.679Z,10.38
2023-05-21T22:52:23.204Z,11.35
2023-05-21T22:57:17.670Z,11.30
2023-05-21T23:02:11.004Z,10.98
2023-05-21T23:07:05.027Z,11.13
2023-05-21T23:11:58.574Z,10.48
2023-05-21T23:16:54.385Z,10.27
2023-05-21T23:21:47.861Z,11.65
2023-05-21T23:26:41.801Z,12.20
2023-05-21T23:31:35.400Z,12.75
2023-05-21T23:36:29.362Z,13.02
2023-05-21T23:41:24.471Z,12.90
2023-05-21T23:46:18.245Z,12.43
2023-05-21T23:51:12.204Z,12.32
2023-05-21T23:56:06.719Z,12.52
